Time;durP1;ratioP1;P1;durP2;ratioP2;P2;SDS_P1;SDS_P2;PMS_P1;PMS_P2;Temp;Humidity;BMP_temperature;BMP_pressure;BME280_temperature;BME280_humidity;BME280_pressure;Samples;Min_cycle;Max_cycle;Signal;HPM_P1;HPM_P2
2023/07/24 00:01:30;;;;;;;;;;;27.70;58.70;;;;;;5044781;28;43014;-86
2023/07/24 00:03:56;;;;;;;;;;;27.60;58.70;;;;;;5045193;28;42947;-86
2023/07/24 00:06:22;;;;;;;;;;;27.70;58.70;;;;;;5045584;28;42816;-86
2023/07/24 00:08:47;;;;;;;;;;;27.60;58.80;;;;;;5046100;28;42964;-86
2023/07/24 00:11:13;;;;;;;;;;;27.50;59.00;;;;;;5044474;28;43106;-86
2023/07/24 00:13:38;;;;;;;;;;;27.60;59.10;;;;;;5045224;28;43163;-86
2023/07/24 00:16:07;;;;;;;;;;;27.60;59.00;;;;;;5044913;28;43028;-86
2023/07/24 00:18:33;;;;;;;;;;;27.70;58.80;;;;;;5045697;28;43588;-87
2023/07/24 00:20:58;;;;;;;;;;;27.70;58.70;;;;;;5045621;28;42952;-86
2023/07/24 00:23:24;;;;;;;;;;;27.10;58.30;;;;;;5045922;28;43014;-86
2023/07/24 00:25:49;;;;;;;;;;;27.70;58.90;;;;;;5045851;28;43108;-86
2023/07/24 00:28:15;;;;;;;;;;;27.70;58.90;;;;;;5045281;28;44176;-87
2023/07/24 00:30:41;;;;;;;;;;;27.70;58.90;;;;;;5045159;28;42969;-86
2023/07/24 00:33:07;;;;;;;;;;;27.70;59.00;;;;;;5043667;28;45390;-87
2023/07/24 00:35:32;;;;;;;;;;;27.70;59.30;;;;;;5045120;28;42993;-87
2023/07/24 00:37:58;;;;;;;;;;;27.70;59.50;;;;;;5045643;28;43062;-86
2023/07/24 00:40:23;;;;;;;;;;;27.70;59.40;;;;;;5045744;28;43329;-87
2023/07/24 00:42:49;;;;;;;;;;;27.60;59.40;;;;;;5045697;28;43506;-86
2023/07/24 00:45:15;;;;;;;;;;;27.50;59.40;;;;;;5046148;28;42967;-86
2023/07/24 00:47:41;;;;;;;;;;;27.50;59.40;;;;;;5045717;28;43674;-87
2023/07/24 00:50:07;;;;;;;;;;;27.60;59.40;;;;;;5045118;28;42989;-87
2023/07/24 00:52:32;;;;;;;;;;;27.60;59.10;;;;;;5045383;28;43473;-86
2023/07/24 00:54:58;;;;;;;;;;;27.60;59.10;;;;;;5045684;28;42825;-86
2023/07/24 00:57:24;;;;;;;;;;;27.70;58.90;;;;;;5044867;28;42882;-86
2023/07/24 00:59:49;;;;;;;;;;;27.70;58.50;;;;;;5045697;28;42980;-86
2023/07/24 01:02:15;;;;;;;;;;;27.60;58.20;;;;;;5044638;28;43493;-86
2023/07/24 01:04:40;;;;;;;;;;;27.60;58.10;;;;;;5044649;28;43091;-87
2023/07/24 01:07:06;;;;;;;;;;;27.50;59.20;;;;;;5044618;28;43257;-86
2023/07/24 01:09:31;;;;;;;;;;;27.50;58.20;;;;;;5044330;28;42901;-87
2023/07/24 01:12:00;;;;;;;;;;;27.50;57.90;;;;;;5045088;28;43476;-87
2023/07/24 01:14:31;;;;;;;;;;;27.50;57.60;;;;;;5044712;28;43006;-86
2023/07/24 01:16:58;;;;;;;;;;;27.50;57.80;;;;;;5043552;28;44626;-87
2023/07/24 01:19:53;;;;;;;;;;;27.50;57.20;;;;;;5044807;28;42860;-88
2023/07/24 01:22:24;;;;;;;;;;;27.50;57.10;;;;;;5038185;28;42931;-87
2023/07/24 01:25:08;;;;;;;;;;;27.40;57.10;;;;;;5045049;28;42939;-86
2023/07/24 01:27:33;;;;;;;;;;;27.50;57.20;;;;;;5037096;28;44104;-88
2023/07/24 01:29:59;;;;;;;;;;;27.40;57.20;;;;;;5044564;28;43022;-87
2023/07/24 01:32:25;;;;;;;;;;;27.50;56.80;;;;;;5043943;28;42934;-87
2023/07/24 01:37:37;;;;;;;;;;;27.40;56.80;;;;;;5043678;28;43171;-86
2023/07/24 01:40:03;;;;;;;;;;;27.40;56.90;;;;;;5044264;28;43116;-87
2023/07/24 01:42:29;;;;;;;;;;;27.30;57.10;;;;;;5043236;28;44872;-88
2023/07/24 01:44:55;;;;;;;;;;;27.30;57.40;;;;;;5043014;28;43045;-87
2023/07/24 01:47:21;;;;;;;;;;;27.40;57.10;;;;;;5045130;28;43519;-87
2023/07/24 01:49:47;;;;;;;;;;;27.30;57.20;;;;;;5044273;28;42969;-86
2023/07/24 01:52:12;;;;;;;;;;;27.30;57.70;;;;;;5042965;28;45685;-87
2023/07/24 01:54:39;;;;;;;;;;;27.30;57.50;;;;;;5025949;28;60508;-87
2023/07/24 01:57:05;;;;;;;;;;;27.30;57.60;;;;;;5044688;28;44021;-86
2023/07/24 01:59:31;;;;;;;;;;;27.20;57.60;;;;;;5039934;28;43096;-87
2023/07/24 02:01:56;;;;;;;;;;;27.20;57.50;;;;;;5043363;28;44055;-86
2023/07/24 02:04:22;;;;;;;;;;;27.10;57.50;;;;;;5043587;28;43061;-87
2023/07/24 02:06:50;;;;;;;;;;;27.70;57.90;;;;;;5043759;28;42892;-87
2023/07/24 02:09:17;;;;;;;;;;;27.10;57.40;;;;;;5044134;28;42937;-87
2023/07/24 02:11:43;;;;;;;;;;;27.10;57.40;;;;;;5044533;28;43705;-87
2023/07/24 02:14:10;;;;;;;;;;;27.20;57.50;;;;;;5043034;28;42857;-87
2023/07/24 02:16:36;;;;;;;;;;;27.10;57.20;;;;;;5044097;28;42955;-87
2023/07/24 02:19:01;;;;;;;;;;;27.10;57.40;;;;;;5044401;28;42958;-87
2023/07/24 02:21:27;;;;;;;;;;;27.20;57.30;;;;;;5041876;28;45151;-86
2023/07/24 02:23:52;;;;;;;;;;;27.20;56.90;;;;;;5043562;28;42935;-87
2023/07/24 02:26:18;;;;;;;;;;;27.20;56.70;;;;;;5042510;28;42965;-88
2023/07/24 02:28:43;;;;;;;;;;;27.20;56.80;;;;;;5044078;28;42934;-87
2023/07/24 02:31:09;;;;;;;;;;;27.20;56.70;;;;;;5044160;28;43512;-87
2023/07/24 02:33:34;;;;;;;;;;;27.00;56.40;;;;;;5043986;28;43517;-88
2023/07/24 02:36:00;;;;;;;;;;;27.20;56.50;;;;;;5043321;28;42896;-86
2023/07/24 02:38:26;;;;;;;;;;;27.20;56.40;;;;;;5044406;28;43042;-87
2023/07/24 02:40:51;;;;;;;;;;;27.20;56.50;;;;;;5042210;28;44690;-87
2023/07/24 02:43:17;;;;;;;;;;;27.20;56.90;;;;;;5043781;28;42981;-88
2023/07/24 02:45:42;;;;;;;;;;;27.20;57.10;;;;;;5043540;28;42952;-88
2023/07/24 02:48:08;;;;;;;;;;;27.20;57.00;;;;;;5042579;28;43205;-88
2023/07/24 02:50:33;;;;;;;;;;;27.10;56.70;;;;;;5043286;28;43870;-87
2023/07/24 02:52:59;;;;;;;;;;;27.10;56.90;;;;;;5043135;28;43135;-86
2023/07/24 02:55:25;;;;;;;;;;;27.10;56.70;;;;;;5041670;28;45191;-87
2023/07/24 02:57:50;;;;;;;;;;;27.10;56.70;;;;;;5041659;28;43246;-87
2023/07/24 03:00:16;;;;;;;;;;;27.00;56.60;;;;;;5032251;28;43627;-87
2023/07/24 03:02:42;;;;;;;;;;;27.00;57.00;;;;;;5041409;28;42975;-88
2023/07/24 03:05:07;;;;;;;;;;;27.10;57.00;;;;;;5041813;28;44509;-87
2023/07/24 03:07:33;;;;;;;;;;;27.00;56.90;;;;;;5042049;28;43143;-86
2023/07/24 03:09:58;;;;;;;;;;;27.00;57.30;;;;;;5041877;28;45546;-87
2023/07/24 03:12:24;;;;;;;;;;;27.00;57.10;;;;;;5043201;28;42939;-87
2023/07/24 03:14:50;;;;;;;;;;;27.10;57.10;;;;;;5041602;28;44321;-86
2023/07/24 03:17:15;;;;;;;;;;;27.10;56.70;;;;;;5041549;28;43043;-87
2023/07/24 03:19:43;;;;;;;;;;;27.10;56.70;;;;;;5042136;28;42930;-87
2023/07/24 03:22:09;;;;;;;;;;;27.10;56.60;;;;;;5036279;28;43103;-87
2023/07/24 03:24:35;;;;;;;;;;;27.00;56.60;;;;;;5052626;28;44888;-87
2023/07/24 03:27:00;;;;;;;;;;;27.00;56.30;;;;;;5041767;28;43059;-87
2023/07/24 03:29:26;;;;;;;;;;;27.00;56.50;;;;;;5041775;28;44144;-87
2023/07/24 03:31:52;;;;;;;;;;;26.90;56.30;;;;;;5037345;28;43153;-87
2023/07/24 03:34:17;;;;;;;;;;;27.00;56.60;;;;;;5040143;28;43026;-86
2023/07/24 03:36:43;;;;;;;;;;;27.00;56.40;;;;;;5044579;28;42915;-87
2023/07/24 03:39:11;;;;;;;;;;;27.00;56.30;;;;;;5046136;28;43369;-87
2023/07/24 03:41:38;;;;;;;;;;;27.00;56.30;;;;;;5045817;28;43024;-87
2023/07/24 03:44:03;;;;;;;;;;;26.90;56.50;;;;;;5039807;28;42948;-83
2023/07/24 03:46:29;;;;;;;;;;;26.90;56.70;;;;;;5044860;28;43120;-86
2023/07/24 03:48:54;;;;;;;;;;;26.90;57.00;;;;;;5045830;28;44441;-86
2023/07/24 03:51:20;;;;;;;;;;;27.00;57.00;;;;;;5046024;28;42989;-86
2023/07/24 03:53:46;;;;;;;;;;;27.00;57.30;;;;;;5045446;28;43022;-86
2023/07/24 03:56:11;;;;;;;;;;;27.00;57.40;;;;;;5043573;28;43078;-87
2023/07/24 03:58:38;;;;;;;;;;;27.00;57.00;;;;;;5034647;28;45246;-86
2023/07/24 04:01:04;;;;;;;;;;;27.10;57.60;;;;;;5046273;28;43022;-86
2023/07/24 04:03:29;;;;;;;;;;;27.00;58.30;;;;;;5046427;28;43671;-87
2023/07/24 04:05:55;;;;;;;;;;;27.00;57.70;;;;;;5046029;28;42990;-86
2023/07/24 04:08:20;;;;;;;;;;;27.10;57.50;;;;;;5045677;28;43951;-87
2023/07/24 04:10:46;;;;;;;;;;;27.10;56.70;;;;;;5045858;28;42943;-86
2023/07/24 04:13:14;;;;;;;;;;;27.10;57.40;;;;;;5044308;28;45666;-86
2023/07/24 04:15:40;;;;;;;;;;;27.10;58.10;;;;;;5046092;28;42855;-86
2023/07/24 04:18:05;;;;;;;;;;;27.00;57.60;;;;;;5046471;28;43457;-86
2023/07/24 04:20:31;;;;;;;;;;;27.00;57.90;;;;;;5045828;28;43006;-87
2023/07/24 04:22:56;;;;;;;;;;;27.10;57.60;;;;;;5046346;28;43510;-86
2023/07/24 04:25:22;;;;;;;;;;;27.10;58.20;;;;;;5042592;28;43420;-86
2023/07/24 04:27:47;;;;;;;;;;;27.20;58.00;;;;;;5046127;28;43562;-86
2023/07/24 04:30:13;;;;;;;;;;;27.20;58.00;;;;;;5041705;28;42906;-88
2023/07/24 04:32:41;;;;;;;;;;;27.10;58.10;;;;;;5040213;28;42960;-87
2023/07/24 04:35:06;;;;;;;;;;;27.10;58.10;;;;;;5040068;28;43029;-86
2023/07/24 04:37:32;;;;;;;;;;;27.10;59.00;;;;;;5032002;28;43696;-87
2023/07/24 04:39:57;;;;;;;;;;;27.00;58.90;;;;;;5043880;28;43070;-87
2023/07/24 04:42:23;;;;;;;;;;;27.00;58.60;;;;;;5039524;28;44355;-87
2023/07/24 04:44:50;;;;;;;;;;;27.00;59.50;;;;;;5045265;28;43040;-88
2023/07/24 04:47:15;;;;;;;;;;;26.90;59.90;;;;;;5045254;28;43419;-87
2023/07/24 04:49:41;;;;;;;;;;;26.90;59.40;;;;;;5042222;28;43065;-86
2023/07/24 04:52:06;;;;;;;;;;;26.90;60.50;;;;;;5038848;28;43691;-87
2023/07/24 04:54:32;;;;;;;;;;;27.00;60.30;;;;;;5042943;28;42962;-87
2023/07/24 04:56:57;;;;;;;;;;;26.90;60.10;;;;;;5037115;28;43390;-85
2023/07/24 04:59:25;;;;;;;;;;;27.00;60.00;;;;;;5041802;28;42950;-84
2023/07/24 05:01:51;;;;;;;;;;;27.00;60.30;;;;;;5042010;28;43942;-87
2023/07/24 05:04:17;;;;;;;;;;;27.00;60.40;;;;;;5038916;28;43030;-88
2023/07/24 05:06:42;;;;;;;;;;;27.00;59.50;;;;;;5036535;28;43333;-88
2023/07/24 05:09:10;;;;;;;;;;;27.00;59.90;;;;;;5043944;28;43595;-86
2023/07/24 05:11:36;;;;;;;;;;;25.00;58.60;;;;;;5042966;28;43067;-86
2023/07/24 05:14:01;;;;;;;;;;;27.10;59.50;;;;;;5042644;28;42899;-86
2023/07/24 05:16:27;;;;;;;;;;;27.10;59.30;;;;;;5040182;28;43040;-86
2023/07/24 05:18:52;;;;;;;;;;;27.10;59.10;;;;;;5041833;28;43082;-86
2023/07/24 05:21:18;;;;;;;;;;;27.10;59.00;;;;;;5039749;28;43598;-85
2023/07/24 05:23:44;;;;;;;;;;;27.10;59.30;;;;;;5033253;28;43040;-86
2023/07/24 05:26:09;;;;;;;;;;;27.10;59.10;;;;;;5043229;28;43678;-85
2023/07/24 05:28:34;;;;;;;;;;;27.10;59.40;;;;;;5041560;28;42954;-86
2023/07/24 05:31:02;;;;;;;;;;;27.20;59.50;;;;;;5044244;28;42931;-87
2023/07/24 05:33:27;;;;;;;;;;;27.20;59.50;;;;;;5044464;28;43018;-87
2023/07/24 05:35:57;;;;;;;;;;;27.20;59.60;;;;;;5044796;28;43001;-86
2023/07/24 05:38:22;;;;;;;;;;;27.20;59.70;;;;;;5044973;28;42930;-87
2023/07/24 05:40:53;;;;;;;;;;;27.20;59.80;;;;;;5043052;28;42948;-87
2023/07/24 05:43:19;;;;;;;;;;;27.20;59.50;;;;;;5040996;28;42974;-86
2023/07/24 05:45:44;;;;;;;;;;;27.20;59.30;;;;;;5042417;28;43815;-87
2023/07/24 05:48:10;;;;;;;;;;;27.10;59.20;;;;;;5044141;28;42958;-87
2023/07/24 05:50:35;;;;;;;;;;;27.00;59.00;;;;;;5042109;28;43464;-89
2023/07/24 05:53:01;;;;;;;;;;;27.00;59.20;;;;;;5042706;28;43023;-90
2023/07/24 05:55:26;;;;;;;;;;;27.00;59.00;;;;;;5044533;28;42853;-90
2023/07/24 05:57:52;;;;;;;;;;;27.00;58.60;;;;;;5040043;28;42972;-90
2023/07/24 06:00:17;;;;;;;;;;;27.00;58.80;;;;;;5038729;28;42916;-91
2023/07/24 06:02:43;;;;;;;;;;;27.00;58.80;;;;;;5043918;28;43061;-90
2023/07/24 06:05:08;;;;;;;;;;;27.10;58.90;;;;;;5043545;28;42919;-88
2023/07/24 06:07:34;;;;;;;;;;;27.10;58.90;;;;;;5044000;28;43021;-90
2023/07/24 06:09:59;;;;;;;;;;;27.10;58.90;;;;;;5042132;28;45126;-85
2023/07/24 06:12:25;;;;;;;;;;;27.10;58.80;;;;;;5043998;28;42861;-89
2023/07/24 06:14:50;;;;;;;;;;;27.10;58.70;;;;;;5044637;28;42882;-89
2023/07/24 06:17:16;;;;;;;;;;;27.20;58.70;;;;;;5043025;28;42988;-90
2023/07/24 06:19:41;;;;;;;;;;;27.20;58.60;;;;;;5044511;28;42821;-88
2023/07/24 06:22:07;;;;;;;;;;;27.30;58.40;;;;;;5044342;28;42929;-88
2023/07/24 06:24:32;;;;;;;;;;;27.30;58.50;;;;;;5042986;28;43202;-87
2023/07/24 06:26:58;;;;;;;;;;;27.40;59.20;;;;;;5041528;28;43044;-91
2023/07/24 06:29:24;;;;;;;;;;;27.40;59.60;;;;;;5043416;28;43772;-86
2023/07/24 06:31:50;;;;;;;;;;;27.40;59.70;;;;;;5039151;28;43003;-85
2023/07/24 06:34:16;;;;;;;;;;;27.30;59.70;;;;;;5049656;28;44487;-91
2023/07/24 06:36:41;;;;;;;;;;;27.40;59.60;;;;;;5035300;28;43472;-91
2023/07/24 06:39:07;;;;;;;;;;;27.40;59.70;;;;;;5055175;28;44560;-93
2023/07/24 06:41:32;;;;;;;;;;;27.40;59.50;;;;;;5043084;28;43063;-92
2023/07/24 06:43:58;;;;;;;;;;;27.40;59.20;;;;;;5031851;28;43315;-83
2023/07/24 06:46:23;;;;;;;;;;;27.50;59.00;;;;;;5043178;28;42942;-93
2023/07/24 06:48:49;;;;;;;;;;;27.50;58.70;;;;;;5043796;28;42985;-89
2023/07/24 06:51:14;;;;;;;;;;;27.50;58.60;;;;;;5042904;28;43024;-89
2023/07/24 06:53:40;;;;;;;;;;;27.60;58.50;;;;;;5043759;28;43427;-92
2023/07/24 06:56:05;;;;;;;;;;;27.60;58.40;;;;;;5043216;28;42986;-84
2023/07/24 06:58:31;;;;;;;;;;;27.70;58.40;;;;;;5041456;28;44574;-86
2023/07/24 07:00:56;;;;;;;;;;;27.70;58.20;;;;;;5029224;28;42951;-86
2023/07/24 07:03:22;;;;;;;;;;;27.70;58.30;;;;;;5041063;28;42889;-87
2023/07/24 07:05:47;;;;;;;;;;;27.70;58.20;;;;;;5043452;28;42986;-87
2023/07/24 07:08:13;;;;;;;;;;;27.70;58.20;;;;;;5043438;28;42957;-86
2023/07/24 07:10:38;;;;;;;;;;;27.70;58.20;;;;;;5042871;28;42961;-86
2023/07/24 07:13:04;;;;;;;;;;;27.70;58.00;;;;;;5046649;28;42910;-87
2023/07/24 07:15:29;;;;;;;;;;;27.70;57.90;;;;;;5047086;28;43010;-87
2023/07/24 07:17:55;;;;;;;;;;;27.70;58.10;;;;;;5046242;28;42997;-85
2023/07/24 07:20:20;;;;;;;;;;;27.80;58.10;;;;;;5046713;28;43162;-87
2023/07/24 07:22:46;;;;;;;;;;;27.80;57.90;;;;;;5046174;28;43658;-86
2023/07/24 07:25:11;;;;;;;;;;;27.80;57.90;;;;;;5046938;28;43010;-86
2023/07/24 07:27:37;;;;;;;;;;;27.80;57.90;;;;;;5044886;28;45369;-86
2023/07/24 07:30:05;;;;;;;;;;;27.80;57.90;;;;;;5046956;28;42874;-86
2023/07/24 07:32:30;;;;;;;;;;;27.70;58.00;;;;;;5046150;28;43489;-87
2023/07/24 07:34:56;;;;;;;;;;;27.80;57.90;;;;;;5046975;28;42994;-86
2023/07/24 07:37:21;;;;;;;;;;;27.80;57.90;;;;;;5047195;28;42757;-87
2023/07/24 07:39:47;;;;;;;;;;;27.80;57.90;;;;;;5046799;28;42946;-87
2023/07/24 07:42:12;;;;;;;;;;;27.80;57.80;;;;;;5046472;28;43987;-87
2023/07/24 07:44:38;;;;;;;;;;;27.80;57.90;;;;;;5046406;28;43081;-86
2023/07/24 07:47:03;;;;;;;;;;;27.80;57.90;;;;;;5046396;28;43023;-87
2023/07/24 07:49:29;;;;;;;;;;;27.80;57.90;;;;;;5046216;28;42904;-86
2023/07/24 07:51:54;;;;;;;;;;;27.80;57.40;;;;;;5044373;28;44619;-87
2023/07/24 07:54:20;;;;;;;;;;;27.80;58.00;;;;;;5046813;28;43079;-87
2023/07/24 07:56:45;;;;;;;;;;;27.80;58.00;;;;;;5046327;28;43324;-87
2023/07/24 07:59:11;;;;;;;;;;;27.80;58.10;;;;;;5044816;28;43040;-87
2023/07/24 08:01:39;;;;;;;;;;;27.80;58.10;;;;;;5044499;28;43565;-85
2023/07/24 08:04:04;;;;;;;;;;;27.80;57.90;;;;;;5044725;28;42853;-87
2023/07/24 08:06:30;;;;;;;;;;;27.80;58.00;;;;;;5044202;28;44460;-85
2023/07/24 08:08:56;;;;;;;;;;;27.80;58.10;;;;;;5046037;28;42816;-85
2023/07/24 08:11:21;;;;;;;;;;;27.90;58.70;;;;;;5045840;28;42918;-85
2023/07/24 08:13:47;;;;;;;;;;;27.80;57.30;;;;;;5046086;28;43043;-86
2023/07/24 08:16:17;;;;;;;;;;;27.90;58.10;;;;;;5045807;28;43086;-86
2023/07/24 08:18:42;;;;;;;;;;;27.90;57.80;;;;;;5044795;28;42967;-86
2023/07/24 08:21:11;;;;;;;;;;;27.90;57.40;;;;;;5044677;28;44509;-86
2023/07/24 08:23:37;;;;;;;;;;;27.90;58.50;;;;;;5045304;28;42852;-84
2023/07/24 08:26:02;;;;;;;;;;;27.90;59.40;;;;;;5044107;28;45720;-86
2023/07/24 08:28:28;;;;;;;;;;;27.90;58.20;;;;;;5044549;28;43493;-85
2023/07/24 08:30:57;;;;;;;;;;;27.90;58.20;;;;;;5045012;28;44019;-86
2023/07/24 08:33:23;;;;;;;;;;;27.90;57.80;;;;;;5045687;28;43020;-85
2023/07/24 08:35:57;;;;;;;;;;;27.90;58.00;;;;;;5044988;28;43664;-87
2023/07/24 08:38:24;;;;;;;;;;;27.80;57.40;;;;;;5044437;28;43023;-87
2023/07/24 08:40:59;;;;;;;;;;;27.90;58.30;;;;;;5045736;28;42931;-87
2023/07/24 08:43:25;;;;;;;;;;;27.90;57.40;;;;;;5038340;28;42798;-86
2023/07/24 08:45:53;;;;;;;;;;;27.80;60.50;;;;;;5044250;28;44275;-87
2023/07/24 08:48:18;;;;;;;;;;;27.90;57.60;;;;;;5045748;28;42861;-84
2023/07/24 08:50:45;;;;;;;;;;;27.80;59.30;;;;;;5045646;28;43840;-85
2023/07/24 08:53:10;;;;;;;;;;;27.90;58.50;;;;;;5044931;28;42875;-85
2023/07/24 08:55:36;;;;;;;;;;;27.90;59.50;;;;;;5045455;28;43532;-84
2023/07/24 08:58:05;;;;;;;;;;;27.90;57.40;;;;;;5045636;28;43035;-86
2023/07/24 09:03:19;;;;;;;;;;;28.30;60.20;;;;;;5039625;28;42940;-86
2023/07/24 09:05:45;;;;;;;;;;;28.00;58.50;;;;;;5043422;28;44947;-87
2023/07/24 09:08:11;;;;;;;;;;;28.00;58.80;;;;;;5044664;28;43006;-85
2023/07/24 09:11:12;;;;;;;;;;;27.90;59.10;;;;;;5043172;28;44604;-87
2023/07/24 09:13:40;;;;;;;;;;;28.20;58.10;;;;;;5005136;28;42902;-84
2023/07/24 09:16:06;;;;;;;;;;;28.00;58.20;;;;;;5043629;28;42918;-84
2023/07/24 09:18:41;;;;;;;;;;;27.90;57.30;;;;;;5038533;28;43220;-84
2023/07/24 09:21:12;;;;;;;;;;;28.00;57.90;;;;;;5042386;28;44570;-85
2023/07/24 09:23:40;;;;;;;;;;;28.00;57.90;;;;;;5042958;28;43067;-85
2023/07/24 09:26:11;;;;;;;;;;;28.00;58.20;;;;;;5044104;28;43065;-85
2023/07/24 09:28:37;;;;;;;;;;;28.00;57.90;;;;;;5042758;28;42904;-84
2023/07/24 09:31:03;;;;;;;;;;;28.00;57.60;;;;;;5043443;28;43457;-87
2023/07/24 09:33:38;;;;;;;;;;;27.90;60.00;;;;;;5037003;28;43091;-88
2023/07/24 09:36:05;;;;;;;;;;;28.70;58.50;;;;;;5043640;28;43025;-84
2023/07/24 09:38:30;;;;;;;;;;;28.00;58.20;;;;;;5043477;28;43107;-87
2023/07/24 09:40:56;;;;;;;;;;;28.00;59.00;;;;;;5042344;28;45292;-86
2023/07/24 09:43:23;;;;;;;;;;;28.10;58.40;;;;;;5041983;28;42988;-85
2023/07/24 09:45:49;;;;;;;;;;;28.00;58.50;;;;;;5044016;28;43577;-85
2023/07/24 09:48:16;;;;;;;;;;;28.00;58.60;;;;;;5044050;28;43010;-85
2023/07/24 09:50:42;;;;;;;;;;;28.00;58.50;;;;;;5033098;28;43435;-86
2023/07/24 09:53:19;;;;;;;;;;;28.00;58.60;;;;;;5043594;28;42994;-86
2023/07/24 09:55:55;;;;;;;;;;;28.00;58.60;;;;;;5042684;28;43450;-85
2023/07/24 09:58:22;;;;;;;;;;;28.00;58.60;;;;;;5043951;28;42949;-84
2023/07/24 10:00:48;;;;;;;;;;;28.00;58.80;;;;;;5044069;28;43002;-85
2023/07/24 10:03:14;;;;;;;;;;;28.10;58.80;;;;;;5043908;28;42914;-86
2023/07/24 10:05:47;;;;;;;;;;;28.00;58.80;;;;;;5034669;28;44822;-86
2023/07/24 10:08:16;;;;;;;;;;;27.50;58.70;;;;;;5041677;28;42998;-87
2023/07/24 10:10:41;;;;;;;;;;;28.00;59.30;;;;;;5041622;28;44457;-82
2023/07/24 10:13:10;;;;;;;;;;;28.10;59.50;;;;;;5043323;28;43291;-84
2023/07/24 10:15:37;;;;;;;;;;;28.10;58.70;;;;;;5041373;28;43775;-84
2023/07/24 10:18:03;;;;;;;;;;;28.10;59.10;;;;;;5042571;28;42927;-85
2023/07/24 10:20:32;;;;;;;;;;;28.10;58.80;;;;;;5043639;28;44085;-84
2023/07/24 10:23:00;;;;;;;;;;;27.90;59.20;;;;;;5042936;28;42981;-85
2023/07/24 10:25:30;;;;;;;;;;;28.00;59.30;;;;;;5043742;28;43092;-84
2023/07/24 10:28:00;;;;;;;;;;;28.00;60.00;;;;;;5043961;28;42911;-84
2023/07/24 10:30:29;;;;;;;;;;;28.10;60.10;;;;;;5035078;28;44007;-84
2023/07/24 10:33:03;;;;;;;;;;;28.10;59.70;;;;;;5040048;28;42890;-84
2023/07/24 10:35:36;;;;;;;;;;;28.10;59.30;;;;;;5041291;28;43289;-82
2023/07/24 10:38:02;;;;;;;;;;;28.10;59.80;;;;;;5043259;28;42987;-84
2023/07/24 10:40:28;;;;;;;;;;;28.10;59.20;;;;;;5056794;28;43760;-84
2023/07/24 10:43:00;;;;;;;;;;;28.10;60.00;;;;;;5043329;28;43107;-83
2023/07/24 10:45:26;;;;;;;;;;;28.10;59.70;;;;;;5043254;28;42996;-83
2023/07/24 10:47:56;;;;;;;;;;;28.10;59.90;;;;;;5043659;28;43066;-83
2023/07/24 10:50:22;;;;;;;;;;;32.30;63.40;;;;;;5046327;28;43550;-83
2023/07/24 10:52:47;;;;;;;;;;;28.10;59.70;;;;;;5046901;28;42845;-84
2023/07/24 10:55:13;;;;;;;;;;;28.10;59.90;;;;;;5044098;28;43572;-84
2023/07/24 10:57:39;;;;;;;;;;;28.10;59.90;;;;;;5042403;28;43009;-83
2023/07/24 11:00:04;;;;;;;;;;;28.10;59.90;;;;;;5044280;28;43383;-83
2023/07/24 11:02:30;;;;;;;;;;;28.10;60.00;;;;;;5047143;28;42979;-83
2023/07/24 11:04:58;;;;;;;;;;;28.10;59.80;;;;;;5046023;28;43460;-83
2023/07/24 11:07:24;;;;;;;;;;;28.10;59.90;;;;;;5043782;28;43034;-83
2023/07/24 11:09:51;;;;;;;;;;;28.20;60.10;;;;;;5042242;28;43266;-83
2023/07/24 11:12:16;;;;;;;;;;;28.10;60.00;;;;;;5046100;28;43074;-84
2023/07/24 11:14:49;;;;;;;;;;;28.10;60.10;;;;;;5038745;28;43721;-84
2023/07/24 11:17:14;;;;;;;;;;;28.10;59.90;;;;;;5035968;28;43240;-84
2023/07/24 11:19:40;;;;;;;;;;;28.10;59.80;;;;;;5043335;28;43156;-84
2023/07/24 11:22:06;;;;;;;;;;;28.10;59.80;;;;;;5043817;28;42896;-84
2023/07/24 11:24:31;;;;;;;;;;;28.10;59.70;;;;;;5044286;28;42939;-83
2023/07/24 11:26:57;;;;;;;;;;;28.10;59.90;;;;;;5036581;28;42854;-85
2023/07/24 11:29:23;;;;;;;;;;;28.10;59.90;;;;;;5045149;28;42915;-84
2023/07/24 11:31:56;;;;;;;;;;;28.10;59.90;;;;;;5045594;28;42793;-84
2023/07/24 11:34:22;;;;;;;;;;;28.10;59.80;;;;;;5043929;28;43443;-85
2023/07/24 11:36:48;;;;;;;;;;;28.10;59.80;;;;;;5045455;28;43006;-84
2023/07/24 11:39:13;;;;;;;;;;;28.10;59.90;;;;;;5044735;28;42822;-84
2023/07/24 11:41:39;;;;;;;;;;;28.10;59.80;;;;;;5045989;28;43677;-85
2023/07/24 11:44:05;;;;;;;;;;;28.10;59.80;;;;;;5044590;28;43021;-85
2023/07/24 11:46:32;;;;;;;;;;;28.20;59.80;;;;;;5045239;28;42855;-85
2023/07/24 11:48:57;;;;;;;;;;;28.10;59.80;;;;;;5045496;28;42943;-85
2023/07/24 11:51:25;;;;;;;;;;;28.20;59.90;;;;;;5044940;28;43014;-84
2023/07/24 11:53:51;;;;;;;;;;;28.20;60.60;;;;;;5045223;28;43417;-85
2023/07/24 11:56:18;;;;;;;;;;;28.30;60.30;;;;;;5046003;28;43493;-85
2023/07/24 11:58:44;;;;;;;;;;;28.20;59.40;;;;;;5043291;28;43143;-85
2023/07/24 12:01:14;;;;;;;;;;;28.20;59.30;;;;;;5045648;28;43118;-85
2023/07/24 12:03:40;;;;;;;;;;;28.20;60.20;;;;;;5044084;28;43506;-85
2023/07/24 12:06:13;;;;;;;;;;;28.20;59.90;;;;;;5044871;28;42963;-84
2023/07/24 12:08:39;;;;;;;;;;;28.20;59.90;;;;;;5044880;28;43047;-84
2023/07/24 12:11:15;;;;;;;;;;;28.10;59.40;;;;;;5045321;28;43218;-85
2023/07/24 12:13:40;;;;;;;;;;;28.20;59.90;;;;;;5044596;28;43045;-85
2023/07/24 12:16:06;;;;;;;;;;;28.20;60.00;;;;;;5044711;28;43015;-84
2023/07/24 12:18:31;;;;;;;;;;;28.20;60.70;;;;;;5044638;28;43679;-85
2023/07/24 12:20:57;;;;;;;;;;;28.20;59.90;;;;;;5044235;28;43080;-86
2023/07/24 12:23:22;;;;;;;;;;;28.20;60.10;;;;;;5045712;28;42907;-85
2023/07/24 12:25:48;;;;;;;;;;;28.20;60.20;;;;;;5045463;28;42910;-84
2023/07/24 12:28:13;;;;;;;;;;;28.20;59.70;;;;;;5044140;28;42967;-85
2023/07/24 12:30:39;;;;;;;;;;;28.20;61.20;;;;;;5042960;28;42928;-85
2023/07/24 12:33:04;;;;;;;;;;;28.20;59.80;;;;;;5042875;28;44435;-85
2023/07/24 12:35:31;;;;;;;;;;;28.20;60.60;;;;;;5043971;28;43027;-85
2023/07/24 12:37:57;;;;;;;;;;;28.20;60.70;;;;;;5044496;28;42983;-80
2023/07/24 12:40:22;;;;;;;;;;;28.20;60.60;;;;;;5044070;28;43112;-84
2023/07/24 12:42:48;;;;;;;;;;;27.10;59.80;;;;;;5045276;28;44070;-84
2023/07/24 12:45:14;;;;;;;;;;;28.20;60.00;;;;;;5042588;28;43009;-84
2023/07/24 12:47:39;;;;;;;;;;;28.30;61.70;;;;;;5042325;28;43308;-84
2023/07/24 12:50:05;;;;;;;;;;;28.20;60.90;;;;;;5043660;28;43697;-84
2023/07/24 12:52:31;;;;;;;;;;;28.20;62.10;;;;;;5043916;28;43811;-84
2023/07/24 12:54:56;;;;;;;;;;;28.20;61.80;;;;;;5044800;28;43134;-84
2023/07/24 12:57:22;;;;;;;;;;;28.20;60.40;;;;;;5044023;28;44346;-84
2023/07/24 12:59:47;;;;;;;;;;;28.20;60.40;;;;;;5042607;28;43082;-83
2023/07/24 13:02:13;;;;;;;;;;;28.30;62.80;;;;;;5044415;28;42923;-84
2023/07/24 13:04:38;;;;;;;;;;;28.50;62.00;;;;;;5044549;28;42969;-84
2023/07/24 13:07:04;;;;;;;;;;;28.20;61.40;;;;;;5044878;28;43905;-84
2023/07/24 13:09:30;;;;;;;;;;;28.30;62.90;;;;;;5043814;28;43092;-83
2023/07/24 13:11:56;;;;;;;;;;;28.30;61.40;;;;;;5044003;28;42955;-84
2023/07/24 13:14:23;;;;;;;;;;;28.30;61.30;;;;;;5044093;28;42948;-84
2023/07/24 13:16:49;;;;;;;;;;;28.30;61.20;;;;;;5042517;28;43545;-84
2023/07/24 13:19:14;;;;;;;;;;;28.20;61.20;;;;;;5044530;28;42919;-84
2023/07/24 13:21:40;;;;;;;;;;;28.30;61.20;;;;;;5044183;28;42891;-84
2023/07/24 13:24:06;;;;;;;;;;;28.30;61.20;;;;;;5043309;28;42836;-84
2023/07/24 13:26:32;;;;;;;;;;;28.30;61.20;;;;;;5044174;28;43718;-85
2023/07/24 13:28:57;;;;;;;;;;;28.30;61.30;;;;;;5044188;28;43006;-84
2023/07/24 13:31:23;;;;;;;;;;;28.30;61.30;;;;;;5040304;28;44553;-84
2023/07/24 13:33:48;;;;;;;;;;;28.20;60.60;;;;;;5043562;28;43298;-84
2023/07/24 13:36:14;;;;;;;;;;;28.20;61.40;;;;;;5043254;28;43068;-83
2023/07/24 13:38:39;;;;;;;;;;;28.30;61.40;;;;;;5043935;28;42978;-83
2023/07/24 13:41:05;;;;;;;;;;;28.30;61.50;;;;;;5042745;28;43058;-84
2023/07/24 13:43:39;;;;;;;;;;;28.20;61.40;;;;;;5043876;28;42959;-83
2023/07/24 13:46:08;;;;;;;;;;;28.20;61.80;;;;;;5031221;28;45167;-84
2023/07/24 13:48:34;;;;;;;;;;;28.20;63.90;;;;;;5042107;28;43093;-84
2023/07/24 13:51:00;;;;;;;;;;;28.20;61.60;;;;;;5034990;28;43035;-83
2023/07/24 13:53:25;;;;;;;;;;;28.20;61.50;;;;;;5043639;28;43030;-84
2023/07/24 13:55:51;;;;;;;;;;;28.30;62.40;;;;;;5043406;28;43656;-83
2023/07/24 13:58:16;;;;;;;;;;;28.20;64.20;;;;;;5042343;28;43029;-84
2023/07/24 14:00:42;;;;;;;;;;;28.20;64.20;;;;;;5043921;28;43538;-84
2023/07/24 14:03:08;;;;;;;;;;;28.10;65.10;;;;;;5043394;28;42981;-83
2023/07/24 14:05:36;;;;;;;;;;;28.00;65.30;;;;;;5043318;28;42884;-84
2023/07/24 14:08:02;;;;;;;;;;;28.00;65.50;;;;;;5041773;28;43085;-84
2023/07/24 14:10:27;;;;;;;;;;;28.00;65.70;;;;;;5042663;28;43016;-84
2023/07/24 14:12:53;;;;;;;;;;;28.00;65.80;;;;;;5042844;28;43180;-84
2023/07/24 14:15:18;;;;;;;;;;;28.00;65.50;;;;;;5043986;28;42975;-83
2023/07/24 14:17:44;;;;;;;;;;;28.00;65.70;;;;;;5041439;28;43089;-84